sensor_id;sensor_type;location;lat;lon;timestamp;P1;durP1;ratioP1;P2;durP2;ratioP2
12332;SDS011;6232;48.094;11.288;2022-11-20T00:01:56;8.63;;;3.20;;
12332;SDS011;6232;48.094;11.288;2022-11-20T00:04:41;4.00;;;3.40;;
12332;SDS011;6232;48.094;11.288;2022-11-20T00:07:27;3.97;;;3.57;;
12332;SDS011;6232;48.094;11.288;2022-11-20T00:10:12;3.73;;;3.43;;
12332;SDS011;6232;48.094;11.288;2022-11-20T00:12:58;4.77;;;2.73;;
12332;SDS011;6232;48.094;11.288;2022-11-20T00:15:44;3.60;;;3.00;;
12332;SDS011;6232;48.094;11.288;2022-11-20T00:18:29;3.47;;;3.03;;
12332;SDS011;6232;48.094;11.288;2022-11-20T00:21:16;3.77;;;3.50;;
12332;SDS011;6232;48.094;11.288;2022-11-20T00:24:02;3.77;;;3.47;;
12332;SDS011;6232;48.094;11.288;2022-11-20T00:26:48;4.60;;;3.93;;
12332;SDS011;6232;48.094;11.288;2022-11-20T00:29:33;4.90;;;3.20;;
12332;SDS011;6232;48.094;11.288;2022-11-20T00:32:19;3.53;;;3.33;;
12332;SDS011;6232;48.094;11.288;2022-11-20T00:35:04;4.90;;;3.87;;
12332;SDS011;6232;48.094;11.288;2022-11-20T00:37:50;2.83;;;2.63;;
12332;SDS011;6232;48.094;11.288;2022-11-20T00:40:36;4.07;;;3.53;;
12332;SDS011;6232;48.094;11.288;2022-11-20T00:43:21;3.83;;;3.30;;
12332;SDS011;6232;48.094;11.288;2022-11-20T00:46:08;3.40;;;3.10;;
12332;SDS011;6232;48.094;11.288;2022-11-20T00:48:54;5.10;;;3.80;;
12332;SDS011;6232;48.094;11.288;2022-11-20T00:51:40;3.60;;;3.27;;
12332;SDS011;6232;48.094;11.288;2022-11-20T00:54:25;5.43;;;3.27;;
12332;SDS011;6232;48.094;11.288;2022-11-20T00:57:11;3.10;;;2.90;;
12332;SDS011;6232;48.094;11.288;2022-11-20T00:59:56;4.33;;;3.97;;
12332;SDS011;6232;48.094;11.288;2022-11-20T01:02:42;4.57;;;3.37;;
12332;SDS011;6232;48.094;11.288;2022-11-20T01:05:27;5.40;;;3.00;;
12332;SDS011;6232;48.094;11.288;2022-11-20T01:08:13;3.53;;;3.20;;
12332;SDS011;6232;48.094;11.288;2022-11-20T01:11:03;3.60;;;3.30;;
12332;SDS011;6232;48.094;11.288;2022-11-20T01:13:49;3.17;;;2.93;;
12332;SDS011;6232;48.094;11.288;2022-11-20T01:16:42;4.33;;;3.40;;
12332;SDS011;6232;48.094;11.288;2022-11-20T01:19:28;4.37;;;3.77;;
12332;SDS011;6232;48.094;11.288;2022-11-20T01:22:13;3.70;;;3.40;;
12332;SDS011;6232;48.094;11.288;2022-11-20T01:24:59;3.70;;;3.40;;
12332;SDS011;6232;48.094;11.288;2022-11-20T01:27:45;6.10;;;3.30;;
12332;SDS011;6232;48.094;11.288;2022-11-20T01:30:30;6.93;;;3.20;;
12332;SDS011;6232;48.094;11.288;2022-11-20T01:33:16;4.10;;;3.70;;
12332;SDS011;6232;48.094;11.288;2022-11-20T01:36:05;3.80;;;3.50;;
12332;SDS011;6232;48.094;11.288;2022-11-20T01:38:51;8.30;;;4.50;;
12332;SDS011;6232;48.094;11.288;2022-11-20T01:41:37;3.20;;;2.90;;
12332;SDS011;6232;48.094;11.288;2022-11-20T01:47:40;3.90;;;3.20;;
12332;SDS011;6232;48.094;11.288;2022-11-20T01:50:27;4.17;;;3.43;;
12332;SDS011;6232;48.094;11.288;2022-11-20T01:53:15;4.40;;;3.40;;
12332;SDS011;6232;48.094;11.288;2022-11-20T01:56:01;10.00;;;4.33;;
12332;SDS011;6232;48.094;11.288;2022-11-20T01:58:49;3.93;;;3.63;;
12332;SDS011;6232;48.094;11.288;2022-11-20T02:01:36;3.83;;;3.47;;
12332;SDS011;6232;48.094;11.288;2022-11-20T02:04:22;3.73;;;3.37;;
12332;SDS011;6232;48.094;11.288;2022-11-20T02:07:08;4.00;;;3.53;;
12332;SDS011;6232;48.094;11.288;2022-11-20T02:09:54;4.17;;;3.77;;
12332;SDS011;6232;48.094;11.288;2022-11-20T02:12:39;4.80;;;3.60;;
12332;SDS011;6232;48.094;11.288;2022-11-20T02:15:44;4.60;;;4.20;;
12332;SDS011;6232;48.094;11.288;2022-11-20T02:18:29;7.57;;;3.63;;
12332;SDS011;6232;48.094;11.288;2022-11-20T02:21:24;3.73;;;3.33;;
12332;SDS011;6232;48.094;11.288;2022-11-20T02:24:14;3.40;;;3.17;;
12332;SDS011;6232;48.094;11.288;2022-11-20T02:27:01;6.00;;;3.60;;
12332;SDS011;6232;48.094;11.288;2022-11-20T02:29:49;3.73;;;3.43;;
12332;SDS011;6232;48.094;11.288;2022-11-20T02:32:36;4.90;;;3.20;;
12332;SDS011;6232;48.094;11.288;2022-11-20T02:38:07;4.17;;;3.80;;
12332;SDS011;6232;48.094;11.288;2022-11-20T02:40:53;4.07;;;3.67;;
12332;SDS011;6232;48.094;11.288;2022-11-20T02:43:39;3.70;;;3.40;;
12332;SDS011;6232;48.094;11.288;2022-11-20T02:46:24;4.10;;;3.80;;
12332;SDS011;6232;48.094;11.288;2022-11-20T02:49:10;4.20;;;3.80;;
12332;SDS011;6232;48.094;11.288;2022-11-20T02:51:55;3.20;;;3.00;;
12332;SDS011;6232;48.094;11.288;2022-11-20T02:54:41;4.70;;;3.63;;
12332;SDS011;6232;48.094;11.288;2022-11-20T02:57:26;3.90;;;3.60;;
12332;SDS011;6232;48.094;11.288;2022-11-20T03:00:12;6.77;;;4.23;;
12332;SDS011;6232;48.094;11.288;2022-11-20T03:02:58;5.90;;;3.83;;
12332;SDS011;6232;48.094;11.288;2022-11-20T03:05:43;7.00;;;4.10;;
12332;SDS011;6232;48.094;11.288;2022-11-20T03:08:29;4.57;;;3.50;;
12332;SDS011;6232;48.094;11.288;2022-11-20T03:11:14;5.70;;;3.77;;
12332;SDS011;6232;48.094;11.288;2022-11-20T03:14:03;4.57;;;4.17;;
12332;SDS011;6232;48.094;11.288;2022-11-20T03:16:49;4.10;;;3.67;;
12332;SDS011;6232;48.094;11.288;2022-11-20T03:19:34;4.13;;;3.73;;
12332;SDS011;6232;48.094;11.288;2022-11-20T03:22:20;5.80;;;4.47;;
12332;SDS011;6232;48.094;11.288;2022-11-20T03:25:05;3.83;;;3.30;;
12332;SDS011;6232;48.094;11.288;2022-11-20T03:27:51;3.60;;;3.30;;
12332;SDS011;6232;48.094;11.288;2022-11-20T03:30:36;4.27;;;3.83;;
12332;SDS011;6232;48.094;11.288;2022-11-20T03:33:22;4.47;;;3.97;;
12332;SDS011;6232;48.094;11.288;2022-11-20T03:36:09;4.20;;;3.83;;
12332;SDS011;6232;48.094;11.288;2022-11-20T03:38:56;4.17;;;3.77;;
12332;SDS011;6232;48.094;11.288;2022-11-20T03:41:41;3.93;;;3.53;;
12332;SDS011;6232;48.094;11.288;2022-11-20T03:44:27;3.63;;;3.33;;
12332;SDS011;6232;48.094;11.288;2022-11-20T03:47:13;4.47;;;4.10;;
12332;SDS011;6232;48.094;11.288;2022-11-20T03:49:59;4.37;;;3.60;;
12332;SDS011;6232;48.094;11.288;2022-11-20T03:52:44;5.93;;;4.27;;
12332;SDS011;6232;48.094;11.288;2022-11-20T03:55:30;3.70;;;3.40;;
12332;SDS011;6232;48.094;11.288;2022-11-20T03:58:15;5.17;;;2.83;;
12332;SDS011;6232;48.094;11.288;2022-11-20T04:01:05;4.67;;;3.80;;
12332;SDS011;6232;48.094;11.288;2022-11-20T04:03:52;4.90;;;3.93;;
12332;SDS011;6232;48.094;11.288;2022-11-20T04:06:38;4.87;;;3.80;;
12332;SDS011;6232;48.094;11.288;2022-11-20T04:09:23;4.93;;;4.50;;
12332;SDS011;6232;48.094;11.288;2022-11-20T04:12:09;5.17;;;3.53;;
12332;SDS011;6232;48.094;11.288;2022-11-20T04:14:54;5.93;;;4.07;;
12332;SDS011;6232;48.094;11.288;2022-11-20T04:17:40;4.07;;;3.77;;
12332;SDS011;6232;48.094;11.288;2022-11-20T04:20:25;4.10;;;3.70;;
12332;SDS011;6232;48.094;11.288;2022-11-20T04:23:11;4.03;;;3.63;;
12332;SDS011;6232;48.094;11.288;2022-11-20T04:26:03;4.87;;;4.30;;
12332;SDS011;6232;48.094;11.288;2022-11-20T04:28:49;4.37;;;3.97;;
12332;SDS011;6232;48.094;11.288;2022-11-20T04:31:35;4.53;;;4.17;;
12332;SDS011;6232;48.094;11.288;2022-11-20T04:34:20;4.43;;;4.03;;
12332;SDS011;6232;48.094;11.288;2022-11-20T04:37:06;5.90;;;4.10;;
12332;SDS011;6232;48.094;11.288;2022-11-20T04:39:51;3.73;;;3.43;;
12332;SDS011;6232;48.094;11.288;2022-11-20T04:42:37;4.40;;;4.03;;
12332;SDS011;6232;48.094;11.288;2022-11-20T04:45:22;4.73;;;3.90;;
12332;SDS011;6232;48.094;11.288;2022-11-20T04:48:08;5.27;;;3.90;;
12332;SDS011;6232;48.094;11.288;2022-11-20T04:50:54;4.53;;;4.00;;
12332;SDS011;6232;48.094;11.288;2022-11-20T04:53:39;6.40;;;4.63;;
12332;SDS011;6232;48.094;11.288;2022-11-20T04:56:25;6.17;;;4.07;;
12332;SDS011;6232;48.094;11.288;2022-11-20T04:59:10;7.60;;;3.90;;
12332;SDS011;6232;48.094;11.288;2022-11-20T05:01:56;5.50;;;4.00;;
12332;SDS011;6232;48.094;11.288;2022-11-20T05:04:41;4.00;;;3.60;;
12332;SDS011;6232;48.094;11.288;2022-11-20T05:07:27;5.10;;;3.53;;
12332;SDS011;6232;48.094;11.288;2022-11-20T05:10:12;3.83;;;3.50;;
12332;SDS011;6232;48.094;11.288;2022-11-20T05:12:58;4.33;;;3.93;;
12332;SDS011;6232;48.094;11.288;2022-11-20T05:15:44;4.30;;;3.93;;
12332;SDS011;6232;48.094;11.288;2022-11-20T05:18:29;3.80;;;3.50;;
12332;SDS011;6232;48.094;11.288;2022-11-20T05:21:15;4.70;;;4.30;;
12332;SDS011;6232;48.094;11.288;2022-11-20T05:24:01;3.87;;;3.43;;
12332;SDS011;6232;48.094;11.288;2022-11-20T05:26:46;6.00;;;4.07;;
12332;SDS011;6232;48.094;11.288;2022-11-20T05:29:32;5.50;;;3.87;;
12332;SDS011;6232;48.094;11.288;2022-11-20T05:32:17;5.07;;;4.00;;
12332;SDS011;6232;48.094;11.288;2022-11-20T05:35:03;4.10;;;3.73;;
12332;SDS011;6232;48.094;11.288;2022-11-20T05:37:48;4.50;;;4.10;;
12332;SDS011;6232;48.094;11.288;2022-11-20T05:40:34;4.10;;;3.70;;
12332;SDS011;6232;48.094;11.288;2022-11-20T05:43:19;4.63;;;3.80;;
12332;SDS011;6232;48.094;11.288;2022-11-20T05:46:06;4.50;;;4.07;;
12332;SDS011;6232;48.094;11.288;2022-11-20T05:48:51;5.57;;;4.20;;
12332;SDS011;6232;48.094;11.288;2022-11-20T05:51:37;3.97;;;3.60;;
12332;SDS011;6232;48.094;11.288;2022-11-20T05:54:22;4.50;;;3.97;;
12332;SDS011;6232;48.094;11.288;2022-11-20T05:57:08;3.57;;;3.27;;
12332;SDS011;6232;48.094;11.288;2022-11-20T05:59:54;4.20;;;3.20;;
12332;SDS011;6232;48.094;11.288;2022-11-20T06:02:39;4.00;;;3.40;;
12332;SDS011;6232;48.094;11.288;2022-11-20T06:05:25;3.77;;;3.47;;
12332;SDS011;6232;48.094;11.288;2022-11-20T06:08:10;3.27;;;3.07;;
12332;SDS011;6232;48.094;11.288;2022-11-20T06:10:56;2.97;;;2.77;;
12332;SDS011;6232;48.094;11.288;2022-11-20T06:13:41;2.97;;;2.77;;
12332;SDS011;6232;48.094;11.288;2022-11-20T06:16:27;3.10;;;2.80;;
12332;SDS011;6232;48.094;11.288;2022-11-20T06:19:13;3.40;;;3.10;;
12332;SDS011;6232;48.094;11.288;2022-11-20T06:21:59;6.10;;;2.70;;
12332;SDS011;6232;48.094;11.288;2022-11-20T06:24:44;3.00;;;2.80;;
12332;SDS011;6232;48.094;11.288;2022-11-20T06:27:30;3.10;;;2.77;;
12332;SDS011;6232;48.094;11.288;2022-11-20T06:30:15;3.70;;;3.40;;
12332;SDS011;6232;48.094;11.288;2022-11-20T06:33:01;2.80;;;2.60;;
12332;SDS011;6232;48.094;11.288;2022-11-20T06:35:46;3.73;;;3.10;;
12332;SDS011;6232;48.094;11.288;2022-11-20T06:38:32;3.60;;;3.30;;
12332;SDS011;6232;48.094;11.288;2022-11-20T06:41:19;3.73;;;3.43;;
12332;SDS011;6232;48.094;11.288;2022-11-20T06:44:05;3.40;;;3.10;;
12332;SDS011;6232;48.094;11.288;2022-11-20T06:46:51;4.03;;;3.50;;
12332;SDS011;6232;48.094;11.288;2022-11-20T06:49:36;4.10;;;3.50;;
12332;SDS011;6232;48.094;11.288;2022-11-20T06:52:23;4.10;;;3.57;;
12332;SDS011;6232;48.094;11.288;2022-11-20T06:55:09;3.43;;;3.07;;
12332;SDS011;6232;48.094;11.288;2022-11-20T06:57:54;3.43;;;3.23;;
12332;SDS011;6232;48.094;11.288;2022-11-20T07:00:40;4.63;;;3.97;;
12332;SDS011;6232;48.094;11.288;2022-11-20T07:03:25;4.00;;;3.70;;
12332;SDS011;6232;48.094;11.288;2022-11-20T07:06:11;6.30;;;4.10;;
12332;SDS011;6232;48.094;11.288;2022-11-20T07:08:57;3.87;;;3.57;;
12332;SDS011;6232;48.094;11.288;2022-11-20T07:11:42;6.70;;;4.40;;
12332;SDS011;6232;48.094;11.288;2022-11-20T07:14:28;4.37;;;3.97;;
12332;SDS011;6232;48.094;11.288;2022-11-20T07:17:14;5.30;;;4.77;;
12332;SDS011;6232;48.094;11.288;2022-11-20T07:19:59;5.03;;;4.33;;
12332;SDS011;6232;48.094;11.288;2022-11-20T07:22:45;9.50;;;5.70;;
12332;SDS011;6232;48.094;11.288;2022-11-20T07:25:30;9.80;;;4.50;;
12332;SDS011;6232;48.094;11.288;2022-11-20T07:28:16;4.33;;;3.63;;
12332;SDS011;6232;48.094;11.288;2022-11-20T07:31:02;7.10;;;5.20;;
12332;SDS011;6232;48.094;11.288;2022-11-20T07:33:48;6.10;;;4.80;;
12332;SDS011;6232;48.094;11.288;2022-11-20T07:36:33;4.90;;;4.27;;
12332;SDS011;6232;48.094;11.288;2022-11-20T07:39:19;6.90;;;4.77;;
12332;SDS011;6232;48.094;11.288;2022-11-20T07:42:06;7.23;;;4.50;;
12332;SDS011;6232;48.094;11.288;2022-11-20T07:44:51;3.93;;;3.60;;
12332;SDS011;6232;48.094;11.288;2022-11-20T07:47:37;4.10;;;3.70;;
12332;SDS011;6232;48.094;11.288;2022-11-20T07:50:22;4.77;;;3.87;;
12332;SDS011;6232;48.094;11.288;2022-11-20T07:53:08;4.73;;;3.53;;
12332;SDS011;6232;48.094;11.288;2022-11-20T07:55:53;5.87;;;3.40;;
12332;SDS011;6232;48.094;11.288;2022-11-20T07:58:39;5.30;;;3.60;;
12332;SDS011;6232;48.094;11.288;2022-11-20T08:01:25;5.03;;;3.90;;
12332;SDS011;6232;48.094;11.288;2022-11-20T08:04:10;5.80;;;4.30;;
12332;SDS011;6232;48.094;11.288;2022-11-20T08:06:56;3.87;;;3.50;;
12332;SDS011;6232;48.094;11.288;2022-11-20T08:09:42;4.03;;;3.63;;
12332;SDS011;6232;48.094;11.288;2022-11-20T08:12:27;5.63;;;3.80;;
12332;SDS011;6232;48.094;11.288;2022-11-20T08:15:32;3.23;;;2.93;;
12332;SDS011;6232;48.094;11.288;2022-11-20T08:18:17;3.63;;;3.23;;
12332;SDS011;6232;48.094;11.288;2022-11-20T08:21:03;4.43;;;3.30;;
12332;SDS011;6232;48.094;11.288;2022-11-20T08:23:49;3.20;;;2.80;;
12332;SDS011;6232;48.094;11.288;2022-11-20T08:26:35;3.90;;;3.17;;
12332;SDS011;6232;48.094;11.288;2022-11-20T08:29:21;3.20;;;2.90;;
12332;SDS011;6232;48.094;11.288;2022-11-20T08:32:06;6.87;;;3.33;;
12332;SDS011;6232;48.094;11.288;2022-11-20T08:34:52;3.93;;;3.47;;
12332;SDS011;6232;48.094;11.288;2022-11-20T08:37:37;4.00;;;3.00;;
12332;SDS011;6232;48.094;11.288;2022-11-20T08:40:26;3.30;;;3.00;;
12332;SDS011;6232;48.094;11.288;2022-11-20T08:43:15;3.40;;;2.90;;
12332;SDS011;6232;48.094;11.288;2022-11-20T08:46:01;3.07;;;2.87;;
12332;SDS011;6232;48.094;11.288;2022-11-20T08:48:46;2.90;;;2.70;;
12332;SDS011;6232;48.094;11.288;2022-11-20T08:51:32;3.20;;;2.90;;
12332;SDS011;6232;48.094;11.288;2022-11-20T08:54:18;3.70;;;3.30;;
12332;SDS011;6232;48.094;11.288;2022-11-20T08:57:06;2.77;;;2.57;;
12332;SDS011;6232;48.094;11.288;2022-11-20T08:59:52;4.60;;;3.10;;
12332;SDS011;6232;48.094;11.288;2022-11-20T09:02:37;2.83;;;2.60;;
12332;SDS011;6232;48.094;11.288;2022-11-20T09:05:23;4.40;;;2.43;;
12332;SDS011;6232;48.094;11.288;2022-11-20T09:08:08;2.90;;;2.70;;
12332;SDS011;6232;48.094;11.288;2022-11-20T09:10:55;3.03;;;2.80;;
12332;SDS011;6232;48.094;11.288;2022-11-20T09:13:40;2.73;;;2.50;;
12332;SDS011;6232;48.094;11.288;2022-11-20T09:16:26;3.37;;;2.73;;
12332;SDS011;6232;48.094;11.288;2022-11-20T09:19:12;2.60;;;2.40;;
12332;SDS011;6232;48.094;11.288;2022-11-20T09:21:57;3.00;;;2.80;;
12332;SDS011;6232;48.094;11.288;2022-11-20T09:24:43;2.43;;;2.33;;
12332;SDS011;6232;48.094;11.288;2022-11-20T09:27:29;4.20;;;2.43;;
12332;SDS011;6232;48.094;11.288;2022-11-20T09:30:15;7.37;;;2.37;;
12332;SDS011;6232;48.094;11.288;2022-11-20T09:33:01;2.60;;;2.40;;
12332;SDS011;6232;48.094;11.288;2022-11-20T09:35:46;2.73;;;2.40;;
12332;SDS011;6232;48.094;11.288;2022-11-20T09:38:32;3.40;;;2.30;;
12332;SDS011;6232;48.094;11.288;2022-11-20T09:41:39;3.10;;;2.20;;
12332;SDS011;6232;48.094;11.288;2022-11-20T09:55:53;2.33;;;2.23;;
12332;SDS011;6232;48.094;11.288;2022-11-20T09:58:47;4.17;;;2.63;;
12332;SDS011;6232;48.094;11.288;2022-11-20T10:01:34;2.77;;;2.57;;
12332;SDS011;6232;48.094;11.288;2022-11-20T10:04:20;2.17;;;2.07;;
12332;SDS011;6232;48.094;11.288;2022-11-20T10:09:57;3.03;;;2.60;;
12332;SDS011;6232;48.094;11.288;2022-11-20T10:21:41;2.53;;;2.13;;
12332;SDS011;6232;48.094;11.288;2022-11-20T10:24:47;1.93;;;1.83;;
12332;SDS011;6232;48.094;11.288;2022-11-20T10:30:25;2.40;;;2.20;;
12332;SDS011;6232;48.094;11.288;2022-11-20T10:36:14;2.33;;;1.90;;
12332;SDS011;6232;48.094;11.288;2022-11-20T10:39:01;2.60;;;2.33;;
12332;SDS011;6232;48.094;11.288;2022-11-20T10:41:49;2.90;;;2.10;;
12332;SDS011;6232;48.094;11.288;2022-11-20T10:44:36;2.03;;;1.93;;
12332;SDS011;6232;48.094;11.288;2022-11-20T10:47:40;1.83;;;1.73;;
12332;SDS011;6232;48.094;11.288;2022-11-20T10:50:26;3.73;;;2.37;;
12332;SDS011;6232;48.094;11.288;2022-11-20T11:02:23;2.40;;;2.20;;
12332;SDS011;6232;48.094;11.288;2022-11-20T11:08:00;2.43;;;2.23;;
12332;SDS011;6232;48.094;11.288;2022-11-20T11:10:47;1.80;;;1.70;;
12332;SDS011;6232;48.094;11.288;2022-11-20T11:13:36;2.97;;;1.80;;
12332;SDS011;6232;48.094;11.288;2022-11-20T11:16:23;1.73;;;1.63;;
12332;SDS011;6232;48.094;11.288;2022-11-20T11:19:12;2.17;;;2.07;;
12332;SDS011;6232;48.094;11.288;2022-11-20T11:21:58;2.00;;;1.90;;
12332;SDS011;6232;48.094;11.288;2022-11-20T11:24:53;2.03;;;1.93;;
12332;SDS011;6232;48.094;11.288;2022-11-20T11:27:49;3.43;;;2.77;;
12332;SDS011;6232;48.094;11.288;2022-11-20T11:30:42;3.47;;;1.83;;
12332;SDS011;6232;48.094;11.288;2022-11-20T11:33:28;1.80;;;1.70;;
12332;SDS011;6232;48.094;11.288;2022-11-20T11:36:18;2.03;;;1.93;;
12332;SDS011;6232;48.094;11.288;2022-11-20T11:39:05;2.03;;;1.93;;
12332;SDS011;6232;48.094;11.288;2022-11-20T11:41:52;1.73;;;1.63;;
12332;SDS011;6232;48.094;11.288;2022-11-20T11:44:37;2.27;;;2.10;;
12332;SDS011;6232;48.094;11.288;2022-11-20T11:47:47;4.60;;;2.20;;
12332;SDS011;6232;48.094;11.288;2022-11-20T11:50:33;2.23;;;1.80;;
12332;SDS011;6232;48.094;11.288;2022-11-20T11:53:23;2.73;;;1.97;;
12332;SDS011;6232;48.094;11.288;2022-11-20T11:56:09;2.67;;;2.30;;
12332;SDS011;6232;48.094;11.288;2022-11-20T11:58:56;2.33;;;2.17;;
12332;SDS011;6232;48.094;11.288;2022-11-20T12:01:50;2.43;;;2.23;;
12332;SDS011;6232;48.094;11.288;2022-11-20T12:04:46;2.17;;;2.07;;
12332;SDS011;6232;48.094;11.288;2022-11-20T12:07:42;2.13;;;2.00;;
12332;SDS011;6232;48.094;11.288;2022-11-20T12:13:22;2.63;;;2.43;;
12332;SDS011;6232;48.094;11.288;2022-11-20T12:16:11;2.30;;;2.10;;
12332;SDS011;6232;48.094;11.288;2022-11-20T12:18:58;1.90;;;1.80;;
12332;SDS011;6232;48.094;11.288;2022-11-20T12:30:16;2.53;;;2.33;;
12332;SDS011;6232;48.094;11.288;2022-11-20T12:41:39;2.00;;;1.90;;
12332;SDS011;6232;48.094;11.288;2022-11-20T12:47:57;10.73;;;2.40;;
12332;SDS011;6232;48.094;11.288;2022-11-20T13:08:27;5.43;;;2.80;;
12332;SDS011;6232;48.094;11.288;2022-11-20T13:19:29;3.73;;;3.43;;
12332;SDS011;6232;48.094;11.288;2022-11-20T13:22:23;2.63;;;2.43;;
12332;SDS011;6232;48.094;11.288;2022-11-20T13:25:09;3.10;;;2.90;;
12332;SDS011;6232;48.094;11.288;2022-11-20T13:27:56;3.83;;;3.10;;
12332;SDS011;6232;48.094;11.288;2022-11-20T13:30:49;3.03;;;2.83;;
12332;SDS011;6232;48.094;11.288;2022-11-20T13:33:35;2.33;;;2.23;;
12332;SDS011;6232;48.094;11.288;2022-11-20T13:36:23;2.63;;;2.40;;
12332;SDS011;6232;48.094;11.288;2022-11-20T13:39:09;3.90;;;2.90;;
12332;SDS011;6232;48.094;11.288;2022-11-20T13:41:55;3.97;;;3.23;;
12332;SDS011;6232;48.094;11.288;2022-11-20T13:44:46;2.70;;;2.50;;
12332;SDS011;6232;48.094;11.288;2022-11-20T13:47:33;2.50;;;2.33;;
12332;SDS011;6232;48.094;11.288;2022-11-20T13:50:19;3.13;;;2.23;;
12332;SDS011;6232;48.094;11.288;2022-11-20T13:56:17;3.73;;;2.40;;
12332;SDS011;6232;48.094;11.288;2022-11-20T14:01:44;2.77;;;2.57;;
12332;SDS011;6232;48.094;11.288;2022-11-20T14:04:35;2.50;;;2.40;;
12332;SDS011;6232;48.094;11.288;2022-11-20T14:07:21;2.40;;;2.20;;
12332;SDS011;6232;48.094;11.288;2022-11-20T14:10:18;2.13;;;2.03;;
12332;SDS011;6232;48.094;11.288;2022-11-20T14:13:20;2.30;;;2.10;;
12332;SDS011;6232;48.094;11.288;2022-11-20T14:16:06;2.30;;;2.20;;
12332;SDS011;6232;48.094;11.288;2022-11-20T14:18:51;2.57;;;2.00;;
12332;SDS011;6232;48.094;11.288;2022-11-20T14:21:38;2.40;;;2.20;;
12332;SDS011;6232;48.094;11.288;2022-11-20T14:24:24;2.00;;;1.80;;
12332;SDS011;6232;48.094;11.288;2022-11-20T14:27:14;1.60;;;1.50;;
12332;SDS011;6232;48.094;11.288;2022-11-20T14:30:00;2.60;;;1.47;;
12332;SDS011;6232;48.094;11.288;2022-11-20T14:32:47;1.37;;;1.37;;
12332;SDS011;6232;48.094;11.288;2022-11-20T14:35:37;1.60;;;1.50;;
12332;SDS011;6232;48.094;11.288;2022-11-20T14:38:27;1.80;;;1.70;;
12332;SDS011;6232;48.094;11.288;2022-11-20T14:41:20;2.23;;;2.13;;
12332;SDS011;6232;48.094;11.288;2022-11-20T14:44:06;2.03;;;1.93;;
12332;SDS011;6232;48.094;11.288;2022-11-20T14:46:54;1.57;;;1.50;;
12332;SDS011;6232;48.094;11.288;2022-11-20T14:49:40;2.40;;;2.20;;
12332;SDS011;6232;48.094;11.288;2022-11-20T14:52:27;1.67;;;1.57;;
12332;SDS011;6232;48.094;11.288;2022-11-20T14:55:13;2.20;;;1.63;;
12332;SDS011;6232;48.094;11.288;2022-11-20T14:58:00;1.93;;;1.83;;
12332;SDS011;6232;48.094;11.288;2022-11-20T15:03:44;1.60;;;1.50;;
12332;SDS011;6232;48.094;11.288;2022-11-20T15:06:31;2.50;;;2.03;;
12332;SDS011;6232;48.094;11.288;2022-11-20T15:09:19;1.83;;;1.73;;
12332;SDS011;6232;48.094;11.288;2022-11-20T15:12:05;2.00;;;1.90;;
12332;SDS011;6232;48.094;11.288;2022-11-20T15:14:51;2.20;;;2.10;;
12332;SDS011;6232;48.094;11.288;2022-11-20T15:17:37;2.10;;;2.00;;
12332;SDS011;6232;48.094;11.288;2022-11-20T15:20:24;1.60;;;1.50;;
12332;SDS011;6232;48.094;11.288;2022-11-20T15:23:11;2.00;;;1.90;;
12332;SDS011;6232;48.094;11.288;2022-11-20T15:25:57;2.60;;;2.37;;
12332;SDS011;6232;48.094;11.288;2022-11-20T15:28:43;2.30;;;2.13;;
12332;SDS011;6232;48.094;11.288;2022-11-20T15:31:30;2.23;;;2.10;;
12332;SDS011;6232;48.094;11.288;2022-11-20T15:34:16;3.47;;;2.40;;
12332;SDS011;6232;48.094;11.288;2022-11-20T15:37:01;2.10;;;1.90;;
12332;SDS011;6232;48.094;11.288;2022-11-20T15:39:47;2.80;;;2.33;;
12332;SDS011;6232;48.094;11.288;2022-11-20T15:42:33;3.60;;;2.83;;
12332;SDS011;6232;48.094;11.288;2022-11-20T15:45:18;2.20;;;2.00;;
12332;SDS011;6232;48.094;11.288;2022-11-20T15:48:04;3.70;;;2.60;;
12332;SDS011;6232;48.094;11.288;2022-11-20T15:50:52;8.77;;;2.63;;
12332;SDS011;6232;48.094;11.288;2022-11-20T15:53:40;2.90;;;2.60;;
12332;SDS011;6232;48.094;11.288;2022-11-20T15:56:26;3.70;;;2.80;;
12332;SDS011;6232;48.094;11.288;2022-11-20T15:59:12;3.07;;;2.87;;
12332;SDS011;6232;48.094;11.288;2022-11-20T16:01:59;2.50;;;2.40;;
12332;SDS011;6232;48.094;11.288;2022-11-20T16:04:45;2.77;;;2.57;;
12332;SDS011;6232;48.094;11.288;2022-11-20T16:07:31;4.67;;;3.00;;
12332;SDS011;6232;48.094;11.288;2022-11-20T16:10:16;2.60;;;2.40;;
12332;SDS011;6232;48.094;11.288;2022-11-20T16:13:02;3.40;;;3.10;;
12332;SDS011;6232;48.094;11.288;2022-11-20T16:16:11;3.27;;;2.70;;
12332;SDS011;6232;48.094;11.288;2022-11-20T16:19:02;2.50;;;2.30;;
12332;SDS011;6232;48.094;11.288;2022-11-20T16:21:48;2.20;;;2.10;;
12332;SDS011;6232;48.094;11.288;2022-11-20T16:24:33;2.63;;;2.37;;
12332;SDS011;6232;48.094;11.288;2022-11-20T16:27:19;3.00;;;2.33;;
12332;SDS011;6232;48.094;11.288;2022-11-20T16:30:05;2.40;;;2.30;;
12332;SDS011;6232;48.094;11.288;2022-11-20T16:32:50;2.20;;;2.00;;
12332;SDS011;6232;48.094;11.288;2022-11-20T16:35:36;3.07;;;2.23;;
12332;SDS011;6232;48.094;11.288;2022-11-20T16:38:22;2.70;;;2.50;;
12332;SDS011;6232;48.094;11.288;2022-11-20T16:41:07;3.27;;;2.97;;
12332;SDS011;6232;48.094;11.288;2022-11-20T16:43:59;3.00;;;2.80;;
12332;SDS011;6232;48.094;11.288;2022-11-20T16:46:45;2.80;;;2.60;;
12332;SDS011;6232;48.094;11.288;2022-11-20T16:49:31;2.93;;;2.73;;
12332;SDS011;6232;48.094;11.288;2022-11-20T16:52:17;4.13;;;2.33;;
12332;SDS011;6232;48.094;11.288;2022-11-20T16:55:03;4.00;;;2.70;;
12332;SDS011;6232;48.094;11.288;2022-11-20T16:57:48;2.67;;;2.47;;
12332;SDS011;6232;48.094;11.288;2022-11-20T17:00:37;4.90;;;3.00;;
12332;SDS011;6232;48.094;11.288;2022-11-20T17:03:06;2.20;;;2.00;;
12332;SDS011;6232;48.094;11.288;2022-11-20T17:05:35;2.73;;;2.50;;
12332;SDS011;6232;48.094;11.288;2022-11-20T17:08:00;3.43;;;2.70;;
12332;SDS011;6232;48.094;11.288;2022-11-20T17:10:26;3.20;;;3.00;;
12332;SDS011;6232;48.094;11.288;2022-11-20T17:12:52;3.03;;;2.83;;
12332;SDS011;6232;48.094;11.288;2022-11-20T17:15:17;5.60;;;2.80;;
12332;SDS011;6232;48.094;11.288;2022-11-20T17:17:42;3.00;;;2.77;;
12332;SDS011;6232;48.094;11.288;2022-11-20T17:20:08;3.97;;;3.07;;
12332;SDS011;6232;48.094;11.288;2022-11-20T17:22:34;3.27;;;2.97;;
12332;SDS011;6232;48.094;11.288;2022-11-20T17:24:59;3.30;;;3.00;;
12332;SDS011;6232;48.094;11.288;2022-11-20T17:27:25;2.70;;;2.50;;
12332;SDS011;6232;48.094;11.288;2022-11-20T17:29:51;6.57;;;3.43;;
12332;SDS011;6232;48.094;11.288;2022-11-20T17:32:19;3.77;;;3.07;;
12332;SDS011;6232;48.094;11.288;2022-11-20T17:35:03;7.10;;;3.60;;
12332;SDS011;6232;48.094;11.288;2022-11-20T17:37:48;4.40;;;3.07;;
12332;SDS011;6232;48.094;11.288;2022-11-20T17:40:34;3.07;;;2.87;;
12332;SDS011;6232;48.094;11.288;2022-11-20T17:43:20;7.50;;;4.20;;
12332;SDS011;6232;48.094;11.288;2022-11-20T17:48:51;6.07;;;4.20;;
12332;SDS011;6232;48.094;11.288;2022-11-20T17:51:36;7.10;;;3.67;;
12332;SDS011;6232;48.094;11.288;2022-11-20T17:54:22;3.57;;;3.27;;
12332;SDS011;6232;48.094;11.288;2022-11-20T17:57:08;4.10;;;3.70;;
12332;SDS011;6232;48.094;11.288;2022-11-20T18:00:12;7.07;;;3.80;;
12332;SDS011;6232;48.094;11.288;2022-11-20T18:03:00;5.53;;;3.57;;
12332;SDS011;6232;48.094;11.288;2022-11-20T18:05:46;7.00;;;4.10;;
12332;SDS011;6232;48.094;11.288;2022-11-20T18:08:31;7.60;;;5.13;;
12332;SDS011;6232;48.094;11.288;2022-11-20T18:11:26;5.30;;;3.70;;
12332;SDS011;6232;48.094;11.288;2022-11-20T18:14:13;5.37;;;4.30;;
12332;SDS011;6232;48.094;11.288;2022-11-20T18:17:13;6.70;;;4.03;;
12332;SDS011;6232;48.094;11.288;2022-11-20T18:19:59;5.10;;;4.50;;
12332;SDS011;6232;48.094;11.288;2022-11-20T18:22:44;6.07;;;4.07;;
12332;SDS011;6232;48.094;11.288;2022-11-20T18:25:30;4.17;;;3.80;;
12332;SDS011;6232;48.094;11.288;2022-11-20T18:28:16;3.77;;;3.20;;
12332;SDS011;6232;48.094;11.288;2022-11-20T18:31:04;4.40;;;4.00;;